SBOSBO EGC / LFBE
Speedbird OnlineSpeedbird Online EGC / LFBE

Bergerac-Roumanière Airport
02:51 15.1°C

Location Bergerac, France
Latitude: 44.82529830932617
Longitude: 0.5186110138893127
Local Time 02:51 on 22 Jun 2024
UTC +2 hours (Europe/Paris)
Currency £1 equals EUR 1.18
METAR LFBE 220000Z AUTO 21004KT 9999 FEW021 OVC042 15/14 Q1021 NOSIG
TAF TAF LFBE 212300Z 2200/2224 27005KT 9999 SCT025 TEMPO 2202/2207 BKN010 TEMPO 2207/2218 3000 RA BKN005
Weather As Of 22 Jun 2024 02:51
Description Broken clouds
Wind 6 km/h from North (0°)
Cloud Cover 75%
Precipitation Rain: none, Snow: none
Sunrise 06:12
Sunset 21:47
NOTAM 2 active NOTAM
Rotations During the last 90 days there were
3 flights from SOU
3 flights to SOU
Web Wikipedia
Codes IATA: EGC
ICAO: LFBE
Altitude 52 Meter / 171 Feet
Distance 744 KM / 462 Miles
from London.
Runways
RunwayLength (m)Surface
092205Asphalt
272205Asphalt
Radio
TypeDescriptionFrequency
APPAQUITAINE APP119.275
TWRBERGERAC TWR119.8
Live ATC



Support Speedbird Online

© 2017-2024 Speedbird Online